sensor_id;sensor_type;location;lat;lon;timestamp;P1;durP1;ratioP1;P2;durP2;ratioP2
10005;SDS011;5042;42.626;23.382;2023-03-12T00:00:48;2.27;;;2.07;;
10005;SDS011;5042;42.626;23.382;2023-03-12T00:03:15;2.27;;;2.07;;
10005;SDS011;5042;42.626;23.382;2023-03-12T00:05:42;1.87;;;1.77;;
10005;SDS011;5042;42.626;23.382;2023-03-12T00:08:10;2.30;;;2.10;;
10005;SDS011;5042;42.626;23.382;2023-03-12T00:10:39;2.57;;;2.10;;
10005;SDS011;5042;42.626;23.382;2023-03-12T00:13:06;2.93;;;2.50;;
10005;SDS011;5042;42.626;23.382;2023-03-12T00:15:34;3.00;;;2.50;;
10005;SDS011;5042;42.626;23.382;2023-03-12T00:18:02;3.73;;;2.50;;
10005;SDS011;5042;42.626;23.382;2023-03-12T00:20:29;2.67;;;2.23;;
10005;SDS011;5042;42.626;23.382;2023-03-12T00:22:56;2.80;;;2.60;;
10005;SDS011;5042;42.626;23.382;2023-03-12T00:25:22;2.60;;;2.40;;
10005;SDS011;5042;42.626;23.382;2023-03-12T00:27:50;4.83;;;2.43;;
10005;SDS011;5042;42.626;23.382;2023-03-12T00:30:17;2.90;;;2.60;;
10005;SDS011;5042;42.626;23.382;2023-03-12T00:32:44;3.23;;;2.60;;
10005;SDS011;5042;42.626;23.382;2023-03-12T00:35:11;2.43;;;1.90;;
10005;SDS011;5042;42.626;23.382;2023-03-12T00:37:38;3.70;;;2.80;;
10005;SDS011;5042;42.626;23.382;2023-03-12T00:40:05;3.03;;;2.73;;
10005;SDS011;5042;42.626;23.382;2023-03-12T00:42:35;2.80;;;2.50;;
10005;SDS011;5042;42.626;23.382;2023-03-12T00:45:03;4.50;;;2.97;;
10005;SDS011;5042;42.626;23.382;2023-03-12T00:47:30;2.87;;;2.50;;
10005;SDS011;5042;42.626;23.382;2023-03-12T00:49:57;2.50;;;2.20;;
10005;SDS011;5042;42.626;23.382;2023-03-12T00:52:24;2.10;;;2.00;;
10005;SDS011;5042;42.626;23.382;2023-03-12T00:54:50;2.33;;;2.13;;
10005;SDS011;5042;42.626;23.382;2023-03-12T00:57:17;1.97;;;1.87;;
10005;SDS011;5042;42.626;23.382;2023-03-12T00:59:44;2.93;;;2.67;;
10005;SDS011;5042;42.626;23.382;2023-03-12T01:02:12;1.90;;;1.77;;
10005;SDS011;5042;42.626;23.382;2023-03-12T01:04:39;2.70;;;2.00;;
10005;SDS011;5042;42.626;23.382;2023-03-12T01:07:06;3.23;;;2.60;;
10005;SDS011;5042;42.626;23.382;2023-03-12T01:09:32;4.23;;;2.97;;
10005;SDS011;5042;42.626;23.382;2023-03-12T01:11:59;2.37;;;2.17;;
10005;SDS011;5042;42.626;23.382;2023-03-12T01:14:26;2.27;;;2.00;;
10005;SDS011;5042;42.626;23.382;2023-03-12T01:16:52;2.43;;;2.20;;
10005;SDS011;5042;42.626;23.382;2023-03-12T01:19:20;4.80;;;2.40;;
10005;SDS011;5042;42.626;23.382;2023-03-12T01:21:47;2.33;;;2.13;;
10005;SDS011;5042;42.626;23.382;2023-03-12T01:24:14;5.40;;;2.60;;
10005;SDS011;5042;42.626;23.382;2023-03-12T01:26:41;3.00;;;2.57;;
10005;SDS011;5042;42.626;23.382;2023-03-12T01:29:07;2.67;;;2.47;;
10005;SDS011;5042;42.626;23.382;2023-03-12T01:31:34;2.00;;;1.90;;
10005;SDS011;5042;42.626;23.382;2023-03-12T01:34:01;2.70;;;2.50;;
10005;SDS011;5042;42.626;23.382;2023-03-12T01:36:29;2.43;;;2.23;;
10005;SDS011;5042;42.626;23.382;2023-03-12T01:38:56;2.43;;;2.03;;
10005;SDS011;5042;42.626;23.382;2023-03-12T01:41:25;3.03;;;2.10;;
10005;SDS011;5042;42.626;23.382;2023-03-12T01:43:53;2.77;;;2.50;;
10005;SDS011;5042;42.626;23.382;2023-03-12T01:48:58;2.50;;;2.30;;
10005;SDS011;5042;42.626;23.382;2023-03-12T01:51:30;2.53;;;2.23;;
10005;SDS011;5042;42.626;23.382;2023-03-12T01:54:01;2.73;;;2.47;;
10005;SDS011;5042;42.626;23.382;2023-03-12T01:56:33;2.53;;;2.33;;
10005;SDS011;5042;42.626;23.382;2023-03-12T01:59:02;2.37;;;2.00;;
10005;SDS011;5042;42.626;23.382;2023-03-12T02:01:35;2.57;;;2.27;;
10005;SDS011;5042;42.626;23.382;2023-03-12T02:04:03;2.90;;;2.60;;
10005;SDS011;5042;42.626;23.382;2023-03-12T02:06:33;2.40;;;2.20;;
10005;SDS011;5042;42.626;23.382;2023-03-12T02:09:05;2.83;;;2.53;;
10005;SDS011;5042;42.626;23.382;2023-03-12T02:11:33;2.43;;;2.23;;
10005;SDS011;5042;42.626;23.382;2023-03-12T02:13:59;2.80;;;2.40;;
10005;SDS011;5042;42.626;23.382;2023-03-12T02:16:26;2.27;;;2.07;;
10005;SDS011;5042;42.626;23.382;2023-03-12T02:18:54;2.63;;;2.40;;
10005;SDS011;5042;42.626;23.382;2023-03-12T02:21:22;2.37;;;2.17;;
10005;SDS011;5042;42.626;23.382;2023-03-12T02:23:53;2.50;;;2.40;;
10005;SDS011;5042;42.626;23.382;2023-03-12T02:26:27;2.10;;;1.90;;
10005;SDS011;5042;42.626;23.382;2023-03-12T02:28:55;1.87;;;1.77;;
10005;SDS011;5042;42.626;23.382;2023-03-12T02:31:26;1.77;;;1.60;;
10005;SDS011;5042;42.626;23.382;2023-03-12T02:33:57;2.30;;;1.77;;
10005;SDS011;5042;42.626;23.382;2023-03-12T02:36:24;2.13;;;1.93;;
10005;SDS011;5042;42.626;23.382;2023-03-12T02:38:52;1.87;;;1.70;;
10005;SDS011;5042;42.626;23.382;2023-03-12T02:41:21;1.63;;;1.53;;
10005;SDS011;5042;42.626;23.382;2023-03-12T02:43:54;1.70;;;1.60;;
10005;SDS011;5042;42.626;23.382;2023-03-12T02:46:25;5.10;;;1.93;;
10005;SDS011;5042;42.626;23.382;2023-03-12T02:48:53;2.33;;;1.90;;
10005;SDS011;5042;42.626;23.382;2023-03-12T02:51:21;1.90;;;1.80;;
10005;SDS011;5042;42.626;23.382;2023-03-12T02:53:48;1.90;;;1.80;;
10005;SDS011;5042;42.626;23.382;2023-03-12T02:56:19;2.27;;;2.07;;
10005;SDS011;5042;42.626;23.382;2023-03-12T02:58:46;2.20;;;2.10;;
10005;SDS011;5042;42.626;23.382;2023-03-12T03:01:14;2.73;;;1.90;;
10005;SDS011;5042;42.626;23.382;2023-03-12T03:03:41;1.40;;;1.30;;
10005;SDS011;5042;42.626;23.382;2023-03-12T03:06:07;2.03;;;1.83;;
10005;SDS011;5042;42.626;23.382;2023-03-12T03:08:34;4.83;;;1.77;;
10005;SDS011;5042;42.626;23.382;2023-03-12T03:11:01;1.30;;;1.30;;
10005;SDS011;5042;42.626;23.382;2023-03-12T03:13:28;4.13;;;1.50;;
10005;SDS011;5042;42.626;23.382;2023-03-12T03:15:55;1.80;;;1.57;;
10005;SDS011;5042;42.626;23.382;2023-03-12T03:18:25;1.50;;;1.40;;
10005;SDS011;5042;42.626;23.382;2023-03-12T03:20:55;1.47;;;1.20;;
10005;SDS011;5042;42.626;23.382;2023-03-12T03:23:22;1.37;;;1.27;;
10005;SDS011;5042;42.626;23.382;2023-03-12T03:25:49;2.40;;;1.33;;
10005;SDS011;5042;42.626;23.382;2023-03-12T03:28:17;0.97;;;0.97;;
10005;SDS011;5042;42.626;23.382;2023-03-12T03:30:43;0.87;;;0.87;;
10005;SDS011;5042;42.626;23.382;2023-03-12T03:33:10;1.00;;;1.00;;
10005;SDS011;5042;42.626;23.382;2023-03-12T03:35:38;1.27;;;1.20;;
10005;SDS011;5042;42.626;23.382;2023-03-12T03:38:05;1.17;;;1.17;;
10005;SDS011;5042;42.626;23.382;2023-03-12T03:40:32;1.23;;;1.10;;
10005;SDS011;5042;42.626;23.382;2023-03-12T03:42:59;1.40;;;1.30;;
10005;SDS011;5042;42.626;23.382;2023-03-12T03:45:26;1.60;;;1.50;;
10005;SDS011;5042;42.626;23.382;2023-03-12T03:47:52;2.83;;;1.00;;
10005;SDS011;5042;42.626;23.382;2023-03-12T03:50:19;1.60;;;1.33;;
10005;SDS011;5042;42.626;23.382;2023-03-12T03:52:48;1.47;;;1.37;;
10005;SDS011;5042;42.626;23.382;2023-03-12T03:55:15;1.27;;;1.10;;
10005;SDS011;5042;42.626;23.382;2023-03-12T03:57:42;1.70;;;1.47;;
10005;SDS011;5042;42.626;23.382;2023-03-12T04:00:09;1.00;;;1.00;;
10005;SDS011;5042;42.626;23.382;2023-03-12T04:02:37;1.23;;;1.20;;
10005;SDS011;5042;42.626;23.382;2023-03-12T04:05:04;1.00;;;1.00;;
10005;SDS011;5042;42.626;23.382;2023-03-12T04:07:32;0.80;;;0.80;;
10005;SDS011;5042;42.626;23.382;2023-03-12T04:10:00;1.10;;;1.00;;
10005;SDS011;5042;42.626;23.382;2023-03-12T04:12:27;1.57;;;1.30;;
10005;SDS011;5042;42.626;23.382;2023-03-12T04:14:53;1.00;;;1.00;;
10005;SDS011;5042;42.626;23.382;2023-03-12T04:17:20;1.00;;;1.00;;
10005;SDS011;5042;42.626;23.382;2023-03-12T04:19:48;0.90;;;0.90;;
10005;SDS011;5042;42.626;23.382;2023-03-12T04:22:14;0.90;;;0.90;;
10005;SDS011;5042;42.626;23.382;2023-03-12T04:24:41;0.87;;;0.83;;
10005;SDS011;5042;42.626;23.382;2023-03-12T04:27:09;0.87;;;0.80;;
10005;SDS011;5042;42.626;23.382;2023-03-12T04:29:36;0.90;;;0.90;;
10005;SDS011;5042;42.626;23.382;2023-03-12T04:32:05;1.13;;;1.03;;
10005;SDS011;5042;42.626;23.382;2023-03-12T04:34:32;0.70;;;0.70;;
10005;SDS011;5042;42.626;23.382;2023-03-12T04:36:59;0.87;;;0.87;;
10005;SDS011;5042;42.626;23.382;2023-03-12T04:39:26;1.07;;;1.00;;
10005;SDS011;5042;42.626;23.382;2023-03-12T04:41:53;1.00;;;1.00;;
10005;SDS011;5042;42.626;23.382;2023-03-12T04:44:21;2.43;;;0.90;;
10005;SDS011;5042;42.626;23.382;2023-03-12T04:46:48;0.93;;;0.93;;
10005;SDS011;5042;42.626;23.382;2023-03-12T04:49:14;0.80;;;0.80;;
10005;SDS011;5042;42.626;23.382;2023-03-12T04:51:41;0.70;;;0.70;;
10005;SDS011;5042;42.626;23.382;2023-03-12T04:54:08;0.90;;;0.90;;
10005;SDS011;5042;42.626;23.382;2023-03-12T04:56:35;0.97;;;0.97;;
10005;SDS011;5042;42.626;23.382;2023-03-12T04:59:01;0.67;;;0.67;;
10005;SDS011;5042;42.626;23.382;2023-03-12T05:01:30;0.60;;;0.60;;
10005;SDS011;5042;42.626;23.382;2023-03-12T05:03:59;0.60;;;0.57;;
10005;SDS011;5042;42.626;23.382;2023-03-12T05:06:26;1.03;;;0.90;;
10005;SDS011;5042;42.626;23.382;2023-03-12T05:08:53;0.90;;;0.90;;
10005;SDS011;5042;42.626;23.382;2023-03-12T05:11:19;0.50;;;0.50;;
10005;SDS011;5042;42.626;23.382;2023-03-12T05:13:47;0.67;;;0.67;;
10005;SDS011;5042;42.626;23.382;2023-03-12T05:16:14;0.67;;;0.67;;
10005;SDS011;5042;42.626;23.382;2023-03-12T05:18:43;1.07;;;0.60;;
10005;SDS011;5042;42.626;23.382;2023-03-12T05:21:11;0.50;;;0.50;;
10005;SDS011;5042;42.626;23.382;2023-03-12T05:23:40;0.87;;;0.87;;
10005;SDS011;5042;42.626;23.382;2023-03-12T05:26:13;0.90;;;0.90;;
10005;SDS011;5042;42.626;23.382;2023-03-12T05:28:42;0.80;;;0.80;;
10005;SDS011;5042;42.626;23.382;2023-03-12T05:31:10;1.37;;;1.20;;
10005;SDS011;5042;42.626;23.382;2023-03-12T05:33:38;6.00;;;0.80;;
10005;SDS011;5042;42.626;23.382;2023-03-12T05:36:06;1.00;;;0.93;;
10005;SDS011;5042;42.626;23.382;2023-03-12T05:38:34;0.70;;;0.70;;
10005;SDS011;5042;42.626;23.382;2023-03-12T05:41:01;0.90;;;0.90;;
10005;SDS011;5042;42.626;23.382;2023-03-12T05:43:28;1.43;;;1.03;;
10005;SDS011;5042;42.626;23.382;2023-03-12T05:45:57;0.80;;;0.80;;
10005;SDS011;5042;42.626;23.382;2023-03-12T05:48:26;0.90;;;0.90;;
10005;SDS011;5042;42.626;23.382;2023-03-12T05:50:53;0.70;;;0.70;;
10005;SDS011;5042;42.626;23.382;2023-03-12T05:53:21;0.90;;;0.90;;
10005;SDS011;5042;42.626;23.382;2023-03-12T05:55:48;0.90;;;0.90;;
10005;SDS011;5042;42.626;23.382;2023-03-12T05:58:15;1.00;;;0.90;;
10005;SDS011;5042;42.626;23.382;2023-03-12T06:00:42;1.10;;;1.10;;
10005;SDS011;5042;42.626;23.382;2023-03-12T06:03:09;1.10;;;1.03;;
10005;SDS011;5042;42.626;23.382;2023-03-12T06:05:37;1.00;;;0.90;;
10005;SDS011;5042;42.626;23.382;2023-03-12T06:08:04;2.10;;;1.23;;
10005;SDS011;5042;42.626;23.382;2023-03-12T06:10:32;1.20;;;1.10;;
10005;SDS011;5042;42.626;23.382;2023-03-12T06:12:59;0.83;;;0.83;;
10005;SDS011;5042;42.626;23.382;2023-03-12T06:15:26;1.13;;;1.03;;
10005;SDS011;5042;42.626;23.382;2023-03-12T06:17:52;1.40;;;1.30;;
10005;SDS011;5042;42.626;23.382;2023-03-12T06:20:19;0.90;;;0.90;;
10005;SDS011;5042;42.626;23.382;2023-03-12T06:22:46;0.83;;;0.83;;
10005;SDS011;5042;42.626;23.382;2023-03-12T06:25:13;1.30;;;1.20;;
10005;SDS011;5042;42.626;23.382;2023-03-12T06:27:41;1.20;;;1.10;;
10005;SDS011;5042;42.626;23.382;2023-03-12T06:30:08;1.80;;;1.50;;
10005;SDS011;5042;42.626;23.382;2023-03-12T06:32:35;2.03;;;1.60;;
10005;SDS011;5042;42.626;23.382;2023-03-12T06:35:02;1.50;;;1.40;;
10005;SDS011;5042;42.626;23.382;2023-03-12T06:37:30;1.53;;;1.40;;
10005;SDS011;5042;42.626;23.382;2023-03-12T06:39:57;1.53;;;1.40;;
10005;SDS011;5042;42.626;23.382;2023-03-12T06:42:24;3.83;;;1.70;;
10005;SDS011;5042;42.626;23.382;2023-03-12T06:44:53;2.33;;;1.50;;
10005;SDS011;5042;42.626;23.382;2023-03-12T06:47:19;1.50;;;1.40;;
10005;SDS011;5042;42.626;23.382;2023-03-12T06:49:46;1.80;;;1.70;;
10005;SDS011;5042;42.626;23.382;2023-03-12T06:52:13;1.90;;;1.80;;
10005;SDS011;5042;42.626;23.382;2023-03-12T06:54:40;1.67;;;1.57;;
10005;SDS011;5042;42.626;23.382;2023-03-12T06:57:07;1.87;;;1.67;;
10005;SDS011;5042;42.626;23.382;2023-03-12T06:59:33;1.90;;;1.80;;
10005;SDS011;5042;42.626;23.382;2023-03-12T07:02:02;2.77;;;2.00;;
10005;SDS011;5042;42.626;23.382;2023-03-12T07:04:28;1.93;;;1.80;;
10005;SDS011;5042;42.626;23.382;2023-03-12T07:06:55;2.00;;;1.90;;
10005;SDS011;5042;42.626;23.382;2023-03-12T07:09:22;2.40;;;1.73;;
10005;SDS011;5042;42.626;23.382;2023-03-12T07:11:49;2.10;;;2.00;;
10005;SDS011;5042;42.626;23.382;2023-03-12T07:14:16;1.83;;;1.60;;
10005;SDS011;5042;42.626;23.382;2023-03-12T07:16:44;2.30;;;1.80;;
10005;SDS011;5042;42.626;23.382;2023-03-12T07:19:12;1.60;;;1.50;;
10005;SDS011;5042;42.626;23.382;2023-03-12T07:21:39;1.97;;;1.67;;
10005;SDS011;5042;42.626;23.382;2023-03-12T07:24:06;1.93;;;1.80;;
10005;SDS011;5042;42.626;23.382;2023-03-12T07:26:33;1.70;;;1.60;;
10005;SDS011;5042;42.626;23.382;2023-03-12T07:29:00;2.57;;;1.70;;
10005;SDS011;5042;42.626;23.382;2023-03-12T07:31:27;2.00;;;1.80;;
10005;SDS011;5042;42.626;23.382;2023-03-12T07:33:55;1.77;;;1.67;;
10005;SDS011;5042;42.626;23.382;2023-03-12T07:36:23;1.60;;;1.40;;
10005;SDS011;5042;42.626;23.382;2023-03-12T07:38:50;3.10;;;2.07;;
10005;SDS011;5042;42.626;23.382;2023-03-12T07:41:17;1.70;;;1.43;;
10005;SDS011;5042;42.626;23.382;2023-03-12T07:43:43;2.10;;;1.50;;
10005;SDS011;5042;42.626;23.382;2023-03-12T07:46:10;1.53;;;1.43;;
10005;SDS011;5042;42.626;23.382;2023-03-12T07:48:37;1.80;;;1.70;;
10005;SDS011;5042;42.626;23.382;2023-03-12T07:51:04;2.80;;;1.70;;
10005;SDS011;5042;42.626;23.382;2023-03-12T07:53:33;3.93;;;1.83;;
10005;SDS011;5042;42.626;23.382;2023-03-12T07:55:59;1.53;;;1.40;;
10005;SDS011;5042;42.626;23.382;2023-03-12T07:58:26;1.83;;;1.50;;
10005;SDS011;5042;42.626;23.382;2023-03-12T08:00:53;1.10;;;1.10;;
10005;SDS011;5042;42.626;23.382;2023-03-12T08:03:20;1.37;;;1.27;;
10005;SDS011;5042;42.626;23.382;2023-03-12T08:05:54;2.30;;;1.73;;
10005;SDS011;5042;42.626;23.382;2023-03-12T08:08:22;1.30;;;1.30;;
10005;SDS011;5042;42.626;23.382;2023-03-12T08:10:50;1.63;;;1.33;;
10005;SDS011;5042;42.626;23.382;2023-03-12T08:13:17;1.40;;;1.30;;
10005;SDS011;5042;42.626;23.382;2023-03-12T08:15:44;1.40;;;1.30;;
10005;SDS011;5042;42.626;23.382;2023-03-12T08:18:11;2.50;;;1.23;;
10005;SDS011;5042;42.626;23.382;2023-03-12T08:20:38;1.50;;;1.30;;
10005;SDS011;5042;42.626;23.382;2023-03-12T08:23:04;1.77;;;1.50;;
10005;SDS011;5042;42.626;23.382;2023-03-12T08:25:31;1.30;;;1.20;;
10005;SDS011;5042;42.626;23.382;2023-03-12T08:27:59;1.63;;;1.33;;
10005;SDS011;5042;42.626;23.382;2023-03-12T08:30:26;1.50;;;1.40;;
10005;SDS011;5042;42.626;23.382;2023-03-12T08:32:53;1.40;;;1.30;;
10005;SDS011;5042;42.626;23.382;2023-03-12T08:35:19;2.20;;;1.63;;
10005;SDS011;5042;42.626;23.382;2023-03-12T08:37:46;1.70;;;1.40;;
10005;SDS011;5042;42.626;23.382;2023-03-12T08:40:13;1.90;;;1.60;;
10005;SDS011;5042;42.626;23.382;2023-03-12T08:42:40;2.00;;;1.40;;
10005;SDS011;5042;42.626;23.382;2023-03-12T08:45:09;1.57;;;1.47;;
10005;SDS011;5042;42.626;23.382;2023-03-12T08:47:37;1.27;;;1.27;;
10005;SDS011;5042;42.626;23.382;2023-03-12T08:50:06;1.80;;;1.70;;
10005;SDS011;5042;42.626;23.382;2023-03-12T08:52:33;1.60;;;1.50;;
10005;SDS011;5042;42.626;23.382;2023-03-12T08:55:00;1.40;;;1.20;;
10005;SDS011;5042;42.626;23.382;2023-03-12T08:57:27;1.57;;;1.47;;
10005;SDS011;5042;42.626;23.382;2023-03-12T08:59:53;1.53;;;1.40;;
10005;SDS011;5042;42.626;23.382;2023-03-12T09:02:22;2.03;;;1.33;;
10005;SDS011;5042;42.626;23.382;2023-03-12T09:04:48;1.47;;;1.37;;
10005;SDS011;5042;42.626;23.382;2023-03-12T09:07:15;1.53;;;1.40;;
10005;SDS011;5042;42.626;23.382;2023-03-12T09:09:43;1.40;;;1.30;;
10005;SDS011;5042;42.626;23.382;2023-03-12T09:12:10;1.70;;;1.60;;
10005;SDS011;5042;42.626;23.382;2023-03-12T09:14:37;4.80;;;2.03;;
10005;SDS011;5042;42.626;23.382;2023-03-12T09:17:04;2.47;;;1.60;;
10005;SDS011;5042;42.626;23.382;2023-03-12T09:19:32;1.40;;;1.30;;
10005;SDS011;5042;42.626;23.382;2023-03-12T09:21:59;1.87;;;1.60;;
10005;SDS011;5042;42.626;23.382;2023-03-12T09:24:25;1.50;;;1.40;;
10005;SDS011;5042;42.626;23.382;2023-03-12T09:26:52;1.60;;;1.50;;
10005;SDS011;5042;42.626;23.382;2023-03-12T09:29:19;1.40;;;1.27;;
10005;SDS011;5042;42.626;23.382;2023-03-12T09:31:46;1.83;;;1.50;;
10005;SDS011;5042;42.626;23.382;2023-03-12T09:34:12;1.63;;;1.40;;
10005;SDS011;5042;42.626;23.382;2023-03-12T09:36:40;1.60;;;1.50;;
10005;SDS011;5042;42.626;23.382;2023-03-12T09:39:07;1.67;;;1.57;;
10005;SDS011;5042;42.626;23.382;2023-03-12T09:41:35;1.23;;;1.23;;
10005;SDS011;5042;42.626;23.382;2023-03-12T09:44:06;1.53;;;1.43;;
10005;SDS011;5042;42.626;23.382;2023-03-12T09:46:42;1.67;;;1.57;;
10005;SDS011;5042;42.626;23.382;2023-03-12T09:49:15;2.40;;;1.80;;
10005;SDS011;5042;42.626;23.382;2023-03-12T09:51:46;1.97;;;1.80;;
10005;SDS011;5042;42.626;23.382;2023-03-12T09:54:21;1.80;;;1.70;;
10005;SDS011;5042;42.626;23.382;2023-03-12T09:56:53;1.40;;;1.30;;
10005;SDS011;5042;42.626;23.382;2023-03-12T09:59:25;1.63;;;1.53;;
10005;SDS011;5042;42.626;23.382;2023-03-12T10:01:54;2.23;;;1.80;;
10005;SDS011;5042;42.626;23.382;2023-03-12T10:07:17;1.90;;;1.70;;
10005;SDS011;5042;42.626;23.382;2023-03-12T10:12:46;1.60;;;1.40;;
10005;SDS011;5042;42.626;23.382;2023-03-12T10:15:28;1.93;;;1.43;;
10005;SDS011;5042;42.626;23.382;2023-03-12T10:18:04;1.60;;;1.50;;
10005;SDS011;5042;42.626;23.382;2023-03-12T10:20:45;1.70;;;1.60;;
10005;SDS011;5042;42.626;23.382;2023-03-12T10:23:23;2.13;;;1.70;;
10005;SDS011;5042;42.626;23.382;2023-03-12T10:25:56;1.13;;;1.07;;
10005;SDS011;5042;42.626;23.382;2023-03-12T10:28:27;1.50;;;1.40;;
10005;SDS011;5042;42.626;23.382;2023-03-12T10:31:00;1.60;;;1.40;;
10005;SDS011;5042;42.626;23.382;2023-03-12T10:33:35;2.67;;;1.60;;
10005;SDS011;5042;42.626;23.382;2023-03-12T10:36:17;2.17;;;1.70;;
10005;SDS011;5042;42.626;23.382;2023-03-12T10:38:48;2.10;;;1.47;;
10005;SDS011;5042;42.626;23.382;2023-03-12T10:41:15;1.60;;;1.50;;
10005;SDS011;5042;42.626;23.382;2023-03-12T10:43:44;1.80;;;1.70;;
10005;SDS011;5042;42.626;23.382;2023-03-12T10:49:22;1.20;;;1.10;;
10005;SDS011;5042;42.626;23.382;2023-03-12T10:51:54;1.40;;;1.30;;
10005;SDS011;5042;42.626;23.382;2023-03-12T10:54:25;0.93;;;0.80;;
10005;SDS011;5042;42.626;23.382;2023-03-12T10:56:53;1.60;;;1.50;;
10005;SDS011;5042;42.626;23.382;2023-03-12T10:59:21;1.60;;;1.50;;
10005;SDS011;5042;42.626;23.382;2023-03-12T11:01:51;1.63;;;1.53;;
10005;SDS011;5042;42.626;23.382;2023-03-12T11:04:19;2.57;;;1.50;;
10005;SDS011;5042;42.626;23.382;2023-03-12T11:07:03;1.53;;;1.43;;
10005;SDS011;5042;42.626;23.382;2023-03-12T11:09:33;1.60;;;1.43;;
10005;SDS011;5042;42.626;23.382;2023-03-12T11:12:00;1.40;;;1.30;;
10005;SDS011;5042;42.626;23.382;2023-03-12T11:14:28;1.30;;;1.30;;
10005;SDS011;5042;42.626;23.382;2023-03-12T11:16:55;1.93;;;1.73;;
10005;SDS011;5042;42.626;23.382;2023-03-12T11:19:26;1.73;;;1.60;;
10005;SDS011;5042;42.626;23.382;2023-03-12T11:21:56;1.93;;;1.60;;
10005;SDS011;5042;42.626;23.382;2023-03-12T11:24:24;2.07;;;1.50;;
10005;SDS011;5042;42.626;23.382;2023-03-12T11:26:52;2.97;;;1.43;;
10005;SDS011;5042;42.626;23.382;2023-03-12T11:29:25;1.30;;;1.20;;
10005;SDS011;5042;42.626;23.382;2023-03-12T11:31:59;1.60;;;1.50;;
10005;SDS011;5042;42.626;23.382;2023-03-12T11:34:32;1.30;;;1.20;;
10005;SDS011;5042;42.626;23.382;2023-03-12T11:37:03;1.77;;;1.57;;
10005;SDS011;5042;42.626;23.382;2023-03-12T11:39:38;1.70;;;1.60;;
10005;SDS011;5042;42.626;23.382;2023-03-12T11:42:26;1.53;;;1.43;;
10005;SDS011;5042;42.626;23.382;2023-03-12T11:45:07;1.40;;;1.30;;
10005;SDS011;5042;42.626;23.382;2023-03-12T11:47:46;1.50;;;1.40;;
10005;SDS011;5042;42.626;23.382;2023-03-12T11:50:24;1.50;;;1.33;;
10005;SDS011;5042;42.626;23.382;2023-03-12T11:53:03;2.07;;;1.23;;
10005;SDS011;5042;42.626;23.382;2023-03-12T11:55:50;1.67;;;1.57;;
10005;SDS011;5042;42.626;23.382;2023-03-12T11:58:37;1.43;;;1.33;;
10005;SDS011;5042;42.626;23.382;2023-03-12T12:01:20;1.37;;;1.27;;
10005;SDS011;5042;42.626;23.382;2023-03-12T12:06:53;1.47;;;1.40;;
10005;SDS011;5042;42.626;23.382;2023-03-12T12:09:31;1.40;;;1.30;;
10005;SDS011;5042;42.626;23.382;2023-03-12T12:12:06;1.93;;;1.63;;
10005;SDS011;5042;42.626;23.382;2023-03-12T12:14:50;1.27;;;1.23;;
10005;SDS011;5042;42.626;23.382;2023-03-12T12:17:30;1.60;;;1.50;;
10005;SDS011;5042;42.626;23.382;2023-03-12T12:20:15;1.27;;;1.17;;
10005;SDS011;5042;42.626;23.382;2023-03-12T12:22:50;2.27;;;1.50;;
10005;SDS011;5042;42.626;23.382;2023-03-12T12:25:27;1.60;;;1.50;;
10005;SDS011;5042;42.626;23.382;2023-03-12T12:28:06;2.10;;;1.60;;
10005;SDS011;5042;42.626;23.382;2023-03-12T12:30:49;1.47;;;1.33;;
10005;SDS011;5042;42.626;23.382;2023-03-12T12:33:29;1.37;;;1.33;;
10005;SDS011;5042;42.626;23.382;2023-03-12T12:36:07;1.40;;;1.30;;
10005;SDS011;5042;42.626;23.382;2023-03-12T12:38:35;2.30;;;1.80;;
10005;SDS011;5042;42.626;23.382;2023-03-12T12:41:07;1.60;;;1.50;;
10005;SDS011;5042;42.626;23.382;2023-03-12T12:43:39;2.00;;;1.83;;
10005;SDS011;5042;42.626;23.382;2023-03-12T12:46:11;1.77;;;1.47;;
10005;SDS011;5042;42.626;23.382;2023-03-12T12:48:42;2.03;;;1.80;;
10005;SDS011;5042;42.626;23.382;2023-03-12T12:51:13;1.80;;;1.70;;
10005;SDS011;5042;42.626;23.382;2023-03-12T12:53:45;2.10;;;1.50;;
10005;SDS011;5042;42.626;23.382;2023-03-12T12:56:18;1.80;;;1.70;;
10005;SDS011;5042;42.626;23.382;2023-03-12T12:58:59;1.60;;;1.50;;
10005;SDS011;5042;42.626;23.382;2023-03-12T13:01:34;1.80;;;1.70;;
10005;SDS011;5042;42.626;23.382;2023-03-12T13:04:04;1.70;;;1.60;;
10005;SDS011;5042;42.626;23.382;2023-03-12T13:06:54;1.50;;;1.40;;
10005;SDS011;5042;42.626;23.382;2023-03-12T13:09:34;1.70;;;1.60;;
10005;SDS011;5042;42.626;23.382;2023-03-12T13:12:07;1.67;;;1.57;;
10005;SDS011;5042;42.626;23.382;2023-03-12T13:14:39;1.83;;;1.60;;
10005;SDS011;5042;42.626;23.382;2023-03-12T13:20:14;1.60;;;1.27;;
10005;SDS011;5042;42.626;23.382;2023-03-12T13:25:45;1.60;;;1.50;;
10005;SDS011;5042;42.626;23.382;2023-03-12T13:28:28;2.83;;;2.03;;
10005;SDS011;5042;42.626;23.382;2023-03-12T13:31:00;1.80;;;1.70;;
10005;SDS011;5042;42.626;23.382;2023-03-12T13:33:42;1.73;;;1.63;;
10005;SDS011;5042;42.626;23.382;2023-03-12T13:36:20;2.63;;;1.90;;
10005;SDS011;5042;42.626;23.382;2023-03-12T13:38:54;1.80;;;1.70;;
10005;SDS011;5042;42.626;23.382;2023-03-12T13:41:32;2.37;;;1.90;;
10005;SDS011;5042;42.626;23.382;2023-03-12T13:46:58;1.87;;;1.60;;
10005;SDS011;5042;42.626;23.382;2023-03-12T13:49:32;1.80;;;1.70;;
10005;SDS011;5042;42.626;23.382;2023-03-12T13:52:08;1.57;;;1.47;;
10005;SDS011;5042;42.626;23.382;2023-03-12T13:54:46;2.33;;;2.13;;
10005;SDS011;5042;42.626;23.382;2023-03-12T13:57:28;1.70;;;1.60;;
10005;SDS011;5042;42.626;23.382;2023-03-12T14:00:00;1.80;;;1.70;;
10005;SDS011;5042;42.626;23.382;2023-03-12T14:02:31;2.17;;;2.00;;
10005;SDS011;5042;42.626;23.382;2023-03-12T14:05:02;1.60;;;1.50;;
10005;SDS011;5042;42.626;23.382;2023-03-12T14:07:54;2.30;;;1.70;;
10005;SDS011;5042;42.626;23.382;2023-03-12T14:10:32;1.57;;;1.47;;
10005;SDS011;5042;42.626;23.382;2023-03-12T14:13:14;3.27;;;1.70;;
10005;SDS011;5042;42.626;23.382;2023-03-12T14:15:52;1.97;;;1.87;;
10005;SDS011;5042;42.626;23.382;2023-03-12T14:18:27;2.07;;;1.93;;
10005;SDS011;5042;42.626;23.382;2023-03-12T14:20:59;1.80;;;1.70;;
10005;SDS011;5042;42.626;23.382;2023-03-12T14:23:29;1.70;;;1.60;;
10005;SDS011;5042;42.626;23.382;2023-03-12T14:26:02;2.13;;;1.93;;
10005;SDS011;5042;42.626;23.382;2023-03-12T14:28:30;1.67;;;1.57;;
10005;SDS011;5042;42.626;23.382;2023-03-12T14:31:04;3.77;;;1.83;;
10005;SDS011;5042;42.626;23.382;2023-03-12T14:33:33;2.00;;;1.90;;
10005;SDS011;5042;42.626;23.382;2023-03-12T14:36:12;1.60;;;1.50;;
10005;SDS011;5042;42.626;23.382;2023-03-12T14:38:43;1.60;;;1.50;;
10005;SDS011;5042;42.626;23.382;2023-03-12T14:41:11;2.00;;;1.90;;
10005;SDS011;5042;42.626;23.382;2023-03-12T14:43:43;1.50;;;1.40;;
10005;SDS011;5042;42.626;23.382;2023-03-12T14:46:14;1.90;;;1.67;;
10005;SDS011;5042;42.626;23.382;2023-03-12T14:48:42;1.67;;;1.57;;
10005;SDS011;5042;42.626;23.382;2023-03-12T14:51:18;1.53;;;1.43;;
10005;SDS011;5042;42.626;23.382;2023-03-12T14:53:47;1.70;;;1.60;;
10005;SDS011;5042;42.626;23.382;2023-03-12T14:56:21;1.83;;;1.67;;
10005;SDS011;5042;42.626;23.382;2023-03-12T14:58:53;1.63;;;1.53;;
10005;SDS011;5042;42.626;23.382;2023-03-12T15:01:21;1.60;;;1.50;;
10005;SDS011;5042;42.626;23.382;2023-03-12T15:03:49;1.70;;;1.60;;
10005;SDS011;5042;42.626;23.382;2023-03-12T15:06:20;2.53;;;1.60;;
10005;SDS011;5042;42.626;23.382;2023-03-12T15:08:53;1.60;;;1.50;;
10005;SDS011;5042;42.626;23.382;2023-03-12T15:11:21;1.40;;;1.30;;
10005;SDS011;5042;42.626;23.382;2023-03-12T15:13:50;1.93;;;1.60;;
10005;SDS011;5042;42.626;23.382;2023-03-12T15:16:18;1.63;;;1.53;;
10005;SDS011;5042;42.626;23.382;2023-03-12T15:18:46;1.90;;;1.50;;
10005;SDS011;5042;42.626;23.382;2023-03-12T15:21:14;1.53;;;1.43;;
10005;SDS011;5042;42.626;23.382;2023-03-12T15:23:43;1.73;;;1.50;;
10005;SDS011;5042;42.626;23.382;2023-03-12T15:26:12;2.63;;;1.87;;